createdAt,value
2017-04-06T00:00:45.857Z,54.11
2017-04-06T00:01:59.163Z,53.92
2017-04-06T00:03:12.420Z,53.63
2017-04-06T00:04:25.149Z,53.92
2017-04-06T00:05:38.479Z,53.83
2017-04-06T00:06:51.768Z,54.11
2017-04-06T00:08:05.068Z,53.83
2017-04-06T00:09:18.358Z,53.73
2017-04-06T00:10:31.609Z,54.11
2017-04-06T00:11:44.366Z,53.92
2017-04-06T00:12:57.707Z,53.83
2017-04-06T00:14:10.982Z,53.83
2017-04-06T00:15:24.250Z,54.02
2017-04-06T00:16:36.516Z,54.02
2017-04-06T00:17:49.278Z,54.31
2017-04-06T00:19:02.580Z,54.21
2017-04-06T00:20:15.826Z,54.11
2017-04-06T00:21:29.087Z,54.41
2017-04-06T00:22:41.885Z,54.21
2017-04-06T00:23:55.155Z,54.19
2017-04-06T00:25:08.481Z,54.31
2017-04-06T00:26:21.771Z,54.8
2017-04-06T00:27:35.045Z,54.21
2017-04-06T00:28:47.795Z,54.77
2017-04-06T00:30:00.544Z,55.06
2017-04-06T00:31:13.816Z,54.86
2017-04-06T00:32:27.101Z,55.35
2017-04-06T00:33:40.363Z,55.35
2017-04-06T00:34:53.118Z,55.06
2017-04-06T00:36:06.697Z,54.77
2017-04-06T00:37:19.535Z,55.74
2017-04-06T00:38:32.845Z,55.16
2017-04-06T00:39:46.132Z,55.93
2017-04-06T00:40:59.384Z,55.26
2017-04-06T00:42:12.723Z,56.13
2017-04-06T00:43:26.032Z,56.41
2017-04-06T00:44:39.315Z,55.26
2017-04-06T00:45:52.083Z,55.93
2017-04-06T00:47:05.320Z,55.74
2017-04-06T00:48:18.624Z,55.93
2017-04-06T00:49:31.364Z,55.16
2017-04-06T00:50:44.626Z,56.23
2017-04-06T00:51:57.900Z,55.16
2017-04-06T00:53:10.131Z,56.03
2017-04-06T00:54:23.399Z,55.74
2017-04-06T00:55:36.204Z,55.74
2017-04-06T00:56:49.489Z,55.54
2017-04-06T00:58:02.763Z,55.64
2017-04-06T00:59:16.073Z,55.93
2017-04-06T01:00:29.362Z,55.83
2017-04-06T01:01:42.105Z,55.93
2017-04-06T01:02:55.390Z,55.54
2017-04-06T01:04:08.185Z,55.74
2017-04-06T01:05:21.468Z,55.35
2017-04-06T01:06:34.736Z,55.26
2017-04-06T01:07:48.076Z,55.64
2017-04-06T01:09:01.328Z,55.64
2017-04-06T01:10:14.586Z,55.74
2017-04-06T01:11:27.432Z,55.74
2017-04-06T01:12:40.713Z,55.93
2017-04-06T01:13:53.984Z,56.51
2017-04-06T01:15:07.293Z,56.68
2017-04-06T01:16:20.558Z,56.39
2017-04-06T01:17:33.334Z,56.97
2017-04-06T01:18:46.645Z,56.87
2017-04-06T01:19:59.910Z,57.07
2017-04-06T01:21:13.209Z,57.26
2017-04-06T01:22:26.522Z,56.87
2017-04-06T01:23:39.814Z,57.81
2017-04-06T01:24:53.075Z,57.43
2017-04-06T01:26:05.832Z,57.81
2017-04-06T01:27:18.612Z,57.91
2017-04-06T01:28:31.903Z,57.62
2017-04-06T01:29:45.185Z,57.91
2017-04-06T01:30:58.467Z,57.81
2017-04-06T01:32:11.725Z,58.01
2017-04-06T01:33:25.008Z,58.3
2017-04-06T01:34:38.264Z,58.3
2017-04-06T01:35:51.502Z,58.11
2017-04-06T01:37:04.750Z,58.11
2017-04-06T01:38:18.248Z,58.78
2017-04-06T01:39:31.505Z,58.69
2017-04-06T01:40:44.811Z,59.07
2017-04-06T01:41:57.567Z,58.88
2017-04-06T01:43:10.831Z,58.39
2017-04-06T01:44:24.099Z,58.59
2017-04-06T01:45:37.375Z,59.07
2017-04-06T01:46:50.657Z,58.88
2017-04-06T01:48:03.387Z,58.85
2017-04-06T01:49:16.664Z,59.27
2017-04-06T01:50:29.958Z,59.56
2017-04-06T01:51:42.741Z,59.43
2017-04-06T01:52:56.033Z,59.72
2017-04-06T01:54:09.312Z,59.63
2017-04-06T01:55:22.097Z,59.72
2017-04-06T01:56:35.396Z,59.33
2017-04-06T01:57:48.163Z,60.01
2017-04-06T01:59:01.485Z,59.72
2017-04-06T02:00:13.735Z,59.53
2017-04-06T02:01:27.004Z,60.4
2017-04-06T02:02:40.267Z,60.21
2017-04-06T02:03:53.534Z,60.4
2017-04-06T02:05:06.294Z,61.08
2017-04-06T02:06:19.624Z,60.5
2017-04-06T02:07:32.939Z,60.78
2017-04-06T02:08:45.674Z,60.88
2017-04-06T02:09:58.988Z,61.08
2017-04-06T02:11:12.263Z,61.46
2017-04-06T02:12:25.537Z,61.33
2017-04-06T02:13:38.297Z,61.53
2017-04-06T02:14:51.042Z,62.59
2017-04-06T02:16:04.347Z,62.5
2017-04-06T02:17:17.600Z,61.82
2017-04-06T02:18:30.910Z,62.59
2017-04-06T02:19:44.187Z,62.3
2017-04-06T02:20:57.417Z,62.11
2017-04-06T02:22:10.661Z,62.5
2017-04-06T02:23:23.990Z,62.4
2017-04-06T02:24:37.264Z,63.18
2017-04-06T02:25:50.586Z,62.88
2017-04-06T02:27:03.321Z,63.37
2017-04-06T02:28:16.667Z,63.46
2017-04-06T02:29:29.029Z,62.88
2017-04-06T02:30:42.294Z,63.18
2017-04-06T02:31:55.549Z,63.37
2017-04-06T02:33:08.349Z,63.37
2017-04-06T02:34:21.635Z,63.92
2017-04-06T02:35:35.020Z,63.66
2017-04-06T02:36:48.270Z,63.76
2017-04-06T02:38:00.992Z,63.92
2017-04-06T02:39:13.303Z,63.66
2017-04-06T02:40:26.098Z,63.76
2017-04-06T02:41:39.414Z,63.76
2017-04-06T02:42:52.673Z,63.63
2017-04-06T02:44:05.955Z,63.27
2017-04-06T02:45:19.366Z,63.37
2017-04-06T02:46:32.652Z,63.92
2017-04-06T02:47:45.921Z,64.11
2017-04-06T02:48:58.658Z,64.11
2017-04-06T02:50:12.002Z,64.21
2017-04-06T02:51:25.460Z,64.11
2017-04-06T02:52:38.716Z,63.92
2017-04-06T02:53:51.462Z,63.92
2017-04-06T02:55:04.724Z,64.31
2017-04-06T02:56:18.041Z,64.4
2017-04-06T02:57:31.641Z,64.31
2017-04-06T02:58:44.907Z,64.59
2017-04-06T02:59:58.180Z,64.69
2017-04-06T03:01:11.517Z,64.53
2017-04-06T03:02:24.310Z,65.37
2017-04-06T03:03:37.693Z,65.27
2017-04-06T03:04:50.958Z,65.66
2017-04-06T03:06:04.252Z,65.56
2017-04-06T03:07:17.655Z,64.59
2017-04-06T03:08:31.025Z,64.89
2017-04-06T03:09:44.330Z,65.17
2017-04-06T03:10:57.596Z,64.69
2017-04-06T03:12:10.973Z,64.89
2017-04-06T03:13:24.580Z,64.69
2017-04-06T03:14:37.854Z,66.72
2017-04-06T03:15:50.589Z,66.33
2017-04-06T03:17:03.866Z,65.66
2017-04-06T03:18:17.261Z,66.24
2017-04-06T03:19:30.823Z,66.33
2017-04-06T03:20:44.154Z,67.88
2017-04-06T03:21:57.444Z,67.11
2017-04-06T03:23:10.818Z,67.88
2017-04-06T03:24:24.174Z,67.49
2017-04-06T03:25:37.041Z,67.49
2017-04-06T03:26:50.307Z,67.98
2017-04-06T03:28:03.075Z,66.72
2017-04-06T03:29:15.492Z,67.88
2017-04-06T03:30:28.916Z,67.79
2017-04-06T03:31:41.689Z,67.88
2017-04-06T03:32:54.958Z,68.46
2017-04-06T03:34:08.271Z,67.49
2017-04-06T03:35:21.230Z,68.17
2017-04-06T03:36:34.024Z,68.52
2017-04-06T03:37:47.293Z,68.43
2017-04-06T03:39:00.564Z,68.82
2017-04-06T03:40:13.893Z,68.24
2017-04-06T03:41:26.863Z,68.52
2017-04-06T03:42:40.145Z,69.78
2017-04-06T03:43:53.415Z,69.59
2017-04-06T03:45:06.677Z,69.2
2017-04-06T03:46:19.986Z,69.49
2017-04-06T03:47:33.473Z,70.17
2017-04-06T03:48:46.207Z,69.49
2017-04-06T03:49:59.515Z,69.59
2017-04-06T03:51:12.826Z,69.88
2017-04-06T03:52:26.179Z,69.98
2017-04-06T03:53:39.539Z,69.68
2017-04-06T03:54:52.792Z,69.59
2017-04-06T03:56:06.064Z,69.49
2017-04-06T03:57:18.954Z,69.59
2017-04-06T03:58:31.761Z,69.43
2017-04-06T03:59:45.010Z,69.82
2017-04-06T04:00:58.283Z,68.95
2017-04-06T04:02:11.661Z,69.53
2017-04-06T04:03:24.111Z,68.95
2017-04-06T04:04:37.430Z,69.04
2017-04-06T04:05:50.696Z,69.53
2017-04-06T04:07:03.961Z,69.82
2017-04-06T04:08:16.253Z,70.2
2017-04-06T04:09:29.743Z,70.1
2017-04-06T04:10:42.503Z,70.2
2017-04-06T04:11:55.768Z,70.1
2017-04-06T04:13:09.066Z,70.01
2017-04-06T04:14:22.360Z,69.92
2017-04-06T04:15:35.793Z,70.59
2017-04-06T04:16:49.083Z,70.46
2017-04-06T04:18:01.824Z,71.52
2017-04-06T04:19:15.337Z,71.33
2017-04-06T04:20:28.685Z,72.49
2017-04-06T04:21:42.002Z,72.49
2017-04-06T04:22:55.280Z,72.49
2017-04-06T04:24:08.569Z,72.2
2017-04-06T04:25:21.952Z,72.2
2017-04-06T04:26:35.188Z,71.81
2017-04-06T04:27:48.468Z,72.88
2017-04-06T04:29:01.745Z,73.07
2017-04-06T04:30:15.097Z,72.88
2017-04-06T04:31:28.578Z,73.16
2017-04-06T04:32:41.889Z,72.97
2017-04-06T04:33:54.620Z,73.16
2017-04-06T04:35:07.900Z,73.16
2017-04-06T04:36:20.672Z,72.78
2017-04-06T04:37:34.064Z,73.26
2017-04-06T04:38:47.329Z,72.78
2017-04-06T04:40:00.063Z,73.16
2017-04-06T04:41:13.346Z,72.97
2017-04-06T04:42:26.662Z,72.68
2017-04-06T04:43:39.928Z,73.16
2017-04-06T04:44:53.214Z,72.97
2017-04-06T04:46:06.508Z,73.74
2017-04-06T04:47:20.011Z,73.74
2017-04-06T04:48:33.319Z,73.65
2017-04-06T04:49:46.111Z,73.74
2017-04-06T04:50:59.402Z,72.97
2017-04-06T04:52:12.691Z,73.16
2017-04-06T04:53:25.425Z,73.07
2017-04-06T04:54:38.708Z,72.1
2017-04-06T04:55:51.450Z,73.16
2017-04-06T04:57:04.726Z,73.84
2017-04-06T04:58:17.992Z,73.84
2017-04-06T04:59:31.291Z,74.32
2017-04-06T05:00:44.601Z,74.23
2017-04-06T05:01:57.865Z,73.84
2017-04-06T05:03:10.635Z,74.04
2017-04-06T05:04:23.355Z,73.65
2017-04-06T05:05:36.601Z,74.32
2017-04-06T05:06:49.865Z,74.04
2017-04-06T05:08:03.118Z,74.42
2017-04-06T05:09:15.892Z,72.88
2017-04-06T05:10:28.670Z,72.97
2017-04-06T05:11:41.909Z,73.07
2017-04-06T05:12:55.168Z,73.94
2017-04-06T05:14:08.430Z,74.04
2017-04-06T05:15:21.706Z,74.42
2017-04-06T05:16:35.034Z,75.2
2017-04-06T05:17:48.298Z,75.58
2017-04-06T05:19:01.555Z,75.29
2017-04-06T05:20:14.839Z,75.68
2017-04-06T05:21:28.115Z,75.64
2017-04-06T05:22:41.363Z,75.64
2017-04-06T05:23:54.646Z,75.64
2017-04-06T05:25:07.900Z,75.35
2017-04-06T05:26:21.153Z,75.35
2017-04-06T05:27:34.385Z,75.93
2017-04-06T05:28:47.158Z,76.12
2017-04-06T05:30:00.447Z,76.12
2017-04-06T05:31:12.710Z,76.03
2017-04-06T05:32:24.967Z,76.22
2017-04-06T05:33:38.265Z,76.32
2017-04-06T05:34:51.540Z,76.42
2017-04-06T05:36:04.828Z,77.09
2017-04-06T05:37:18.097Z,77
2017-04-06T05:38:31.334Z,78.83
2017-04-06T05:39:44.612Z,77.96
2017-04-06T05:40:57.942Z,77.57
2017-04-06T05:42:11.231Z,77.09
2017-04-06T05:43:23.436Z,77.76
2017-04-06T05:44:36.711Z,77.86
2017-04-06T05:45:49.985Z,75.89
2017-04-06T05:47:02.725Z,74.44
2017-04-06T05:48:15.970Z,73.77
2017-04-06T05:49:29.190Z,74.54
2017-04-06T05:50:41.922Z,76.76
2017-04-06T05:51:55.176Z,75.41
2017-04-06T05:53:07.928Z,74.58
2017-04-06T05:54:21.189Z,73.9
2017-04-06T05:55:34.477Z,74.48
2017-04-06T05:56:47.766Z,74.06
2017-04-06T05:58:01.009Z,74.19
2017-04-06T05:59:14.243Z,74.96
2017-04-06T06:00:27.510Z,74.25
2017-04-06T06:01:39.795Z,74.54
2017-04-06T06:02:52.557Z,73.96
2017-04-06T06:04:05.810Z,73.9
2017-04-06T06:05:19.054Z,74
2017-04-06T06:06:31.306Z,74.1
2017-04-06T06:07:44.557Z,74.48
2017-04-06T06:08:57.864Z,75.16
2017-04-06T06:10:11.152Z,75.35
2017-04-06T06:11:23.904Z,75.64
2017-04-06T06:12:36.711Z,75.74
2017-04-06T06:13:49.479Z,76.7
2017-04-06T06:15:01.704Z,76.7
2017-04-06T06:16:14.993Z,77.38
2017-04-06T06:17:27.265Z,77.28
2017-04-06T06:18:40.567Z,77.09
2017-04-06T06:19:53.318Z,77.57
2017-04-06T06:21:06.116Z,78.25
2017-04-06T06:22:19.367Z,78.34
2017-04-06T06:23:32.656Z,78.44
2017-04-06T06:24:45.918Z,78.73
2017-04-06T06:25:59.238Z,78.64
2017-04-06T06:27:11.985Z,78.83
2017-04-06T06:28:25.245Z,78.92
2017-04-06T06:29:38.498Z,78.99
2017-04-06T06:30:51.233Z,78.21
2017-04-06T06:32:04.484Z,77.05
2017-04-06T06:33:17.228Z,76.95
2017-04-06T06:34:29.460Z,77.34
2017-04-06T06:35:42.696Z,76.37
2017-04-06T06:36:55.983Z,77.34
2017-04-06T06:38:09.277Z,77.25
2017-04-06T06:39:22.045Z,76.57
2017-04-06T06:40:35.293Z,76.86
2017-04-06T06:41:47.723Z,76.95
2017-04-06T06:43:00.971Z,76.09
2017-04-06T06:44:14.250Z,75.41
2017-04-06T06:45:27.537Z,75.31
2017-04-06T06:46:40.291Z,75.12
2017-04-06T06:47:53.082Z,74.25
2017-04-06T06:49:06.363Z,74.54
2017-04-06T06:50:19.113Z,74.44
2017-04-06T06:51:32.366Z,74.93
2017-04-06T06:52:45.625Z,74.06
2017-04-06T06:53:58.411Z,74.12
2017-04-06T06:55:11.677Z,74.79
2017-04-06T06:56:23.918Z,75.57
2017-04-06T06:57:37.206Z,74.99
2017-04-06T06:58:50.475Z,75.18
2017-04-06T07:00:03.765Z,75.67
2017-04-06T07:01:16.543Z,75.85
2017-04-06T07:02:29.305Z,77.98
2017-04-06T07:03:42.597Z,78.85
2017-04-06T07:04:55.875Z,79.62
2017-04-06T07:06:09.182Z,81.16
2017-04-06T07:07:22.465Z,81.16
2017-04-06T07:08:34.675Z,81.45
2017-04-06T07:09:47.945Z,81.07
2017-04-06T07:11:00.689Z,81.93
2017-04-06T07:12:13.957Z,82.9
2017-04-06T07:13:26.196Z,83.53
2017-04-06T07:14:39.454Z,84.31
2017-04-06T07:15:52.209Z,85.37
2017-04-06T07:17:04.990Z,87.06
2017-04-06T07:18:18.280Z,89.43
2017-04-06T07:19:31.599Z,92.22
2017-04-06T07:20:44.332Z,94.06
2017-04-06T07:21:57.640Z,95.02
2017-04-06T07:23:10.406Z,95.6
2017-04-06T07:24:23.186Z,97.28
2017-04-06T07:25:36.451Z,98.54
2017-04-06T07:26:49.212Z,99.21
2017-04-06T07:28:02.480Z,99.99
2017-04-06T07:29:15.751Z,99.99
2017-04-06T07:30:29.039Z,99.99
2017-04-06T07:31:42.349Z,99.99
2017-04-06T07:32:55.116Z,99.99
2017-04-06T07:34:08.367Z,99.99
2017-04-06T07:35:21.151Z,99.99
2017-04-06T07:36:33.934Z,99.99
2017-04-06T07:37:47.233Z,99.99
2017-04-06T07:39:00.545Z,99.99
2017-04-06T07:40:13.817Z,99.99
2017-04-06T07:41:26.559Z,99.99
2017-04-06T07:42:39.862Z,99.99
2017-04-06T07:43:53.180Z,99.99
2017-04-06T07:45:06.461Z,99.99
2017-04-06T07:46:19.720Z,99.99
2017-04-06T07:47:33.024Z,99.99
2017-04-06T07:48:45.794Z,99.99
2017-04-06T07:49:59.071Z,99.99
2017-04-06T07:51:12.310Z,99.99
2017-04-06T07:52:25.058Z,99.99
2017-04-06T07:53:38.329Z,99.99
2017-04-06T07:54:51.622Z,99.99
2017-04-06T07:56:04.380Z,99.99
2017-04-06T07:57:17.120Z,99.99
2017-04-06T07:58:30.389Z,99.99
2017-04-06T07:59:43.702Z,99.99
2017-04-06T08:00:56.461Z,99.99
2017-04-06T08:02:09.211Z,99.99
2017-04-06T08:03:22.483Z,99.99
2017-04-06T08:04:34.717Z,99.99
2017-04-06T08:05:48.000Z,99.99
2017-04-06T08:07:01.246Z,99.99
2017-04-06T08:08:14.028Z,99.99
2017-04-06T08:09:26.818Z,99.99
2017-04-06T08:10:39.556Z,99.99
2017-04-06T08:11:52.854Z,99.99
2017-04-06T08:13:06.098Z,99.99
2017-04-06T08:14:19.352Z,99.99
2017-04-06T08:15:32.075Z,99.99
2017-04-06T08:16:44.818Z,99.99
2017-04-06T08:17:58.085Z,99.99
2017-04-06T08:19:11.419Z,99.99
2017-04-06T08:20:24.704Z,99.99
2017-04-06T08:21:37.499Z,99.99
2017-04-06T08:22:50.251Z,99.99
2017-04-06T08:24:03.540Z,99.99
2017-04-06T08:25:16.328Z,99.99
2017-04-06T08:26:29.171Z,99.99
2017-04-06T08:27:42.495Z,99.99
2017-04-06T08:28:54.755Z,99.99
2017-04-06T08:30:07.544Z,99.99
2017-04-06T08:31:20.329Z,99.99
2017-04-06T08:32:33.647Z,99.99
2017-04-06T08:33:45.899Z,99.99
2017-04-06T08:34:58.699Z,99.99
2017-04-06T08:36:11.993Z,99.99
2017-04-06T08:37:25.300Z,99.99
2017-04-06T08:38:38.036Z,99.99
2017-04-06T08:39:50.815Z,99.99
2017-04-06T08:41:04.098Z,99.99
2017-04-06T08:42:17.393Z,99.99
2017-04-06T08:43:30.172Z,99.99
2017-04-06T08:44:42.925Z,99.99
2017-04-06T08:45:55.176Z,99.99
2017-04-06T08:47:07.932Z,99.99
2017-04-06T08:48:20.688Z,99.99
2017-04-06T08:49:33.920Z,99.99
2017-04-06T08:50:47.142Z,99.99
2017-04-06T08:52:00.382Z,99.99
2017-04-06T08:53:13.628Z,99.99
2017-04-06T08:54:26.419Z,99.99
2017-04-06T08:55:39.199Z,99.99
2017-04-06T08:56:52.452Z,99.99
2017-04-06T08:58:05.249Z,99.99
2017-04-06T08:59:18.558Z,99.99
2017-04-06T09:00:31.324Z,99.99
2017-04-06T09:01:44.604Z,99.99
2017-04-06T09:02:57.339Z,99.99
2017-04-06T09:04:10.605Z,99.99
2017-04-06T09:05:23.371Z,99.99
2017-04-06T09:06:36.127Z,99.99
2017-04-06T09:07:49.401Z,99.99
2017-04-06T09:09:02.158Z,99.99
2017-04-06T09:10:14.895Z,99.99
2017-04-06T09:11:28.144Z,99.99
2017-04-06T09:12:40.911Z,99.99
2017-04-06T09:13:54.176Z,99.99
2017-04-06T09:15:05.873Z,99.99
2017-04-06T09:16:19.137Z,99.99
2017-04-06T09:17:31.886Z,99.99
2017-04-06T09:18:44.624Z,99.99
2017-04-06T09:19:57.891Z,99.99
2017-04-06T09:21:10.628Z,99.99
2017-04-06T09:22:23.889Z,99.99
2017-04-06T09:23:36.109Z,99.99
2017-04-06T09:24:49.383Z,99.99
2017-04-06T09:27:20.005Z,99.99
2017-04-06T09:28:32.787Z,99.99
2017-04-06T09:29:46.058Z,99.99
2017-04-06T09:30:59.343Z,99.99
2017-04-06T09:32:12.096Z,99.99
2017-04-06T09:33:25.370Z,99.99
2017-04-06T09:34:38.118Z,99.99
2017-04-06T09:35:50.338Z,99.99
2017-04-06T09:37:03.093Z,99.99
2017-04-06T09:38:16.374Z,99.99
2017-04-06T09:39:29.156Z,99.99
2017-04-06T09:40:41.894Z,99.99
2017-04-06T09:41:55.180Z,99.99
2017-04-06T09:43:08.456Z,99.99
2017-04-06T09:44:21.221Z,99.99
2017-04-06T09:45:33.997Z,99.99
2017-04-06T09:46:47.311Z,99.99
2017-04-06T09:48:00.061Z,99.99
2017-04-06T09:49:13.325Z,99.99
2017-04-06T09:50:26.600Z,99.99
2017-04-06T09:51:39.382Z,99.99
2017-04-06T09:52:52.635Z,99.99
2017-04-06T09:54:05.892Z,99.99
2017-04-06T09:55:19.165Z,99.99
2017-04-06T09:56:32.435Z,99.99
2017-04-06T09:57:45.180Z,99.99
2017-04-06T09:58:57.927Z,99.99
2017-04-06T10:00:11.215Z,99.99
2017-04-06T10:01:24.530Z,99.99
2017-04-06T10:02:37.294Z,99.99
2017-04-06T10:03:50.560Z,99.99
2017-04-06T10:05:03.332Z,99.99
2017-04-06T10:06:16.598Z,99.99
2017-04-06T10:07:29.921Z,99.99
2017-04-06T10:08:43.175Z,99.99
2017-04-06T10:09:56.452Z,99.99
2017-04-06T10:11:08.704Z,99.99
2017-04-06T10:12:22.000Z,99.99
2017-04-06T10:13:35.280Z,99.99
2017-04-06T10:14:48.556Z,99.99
2017-04-06T10:16:01.828Z,99.99
2017-04-06T10:17:15.102Z,99.99
2017-04-06T10:18:27.861Z,99.99
2017-04-06T10:19:40.643Z,99.99
2017-04-06T10:20:53.404Z,99.99
2017-04-06T10:22:06.208Z,99.99
2017-04-06T10:23:19.484Z,99.99
2017-04-06T10:24:32.776Z,99.99
2017-04-06T10:25:46.058Z,99.99
2017-04-06T10:26:58.814Z,99.99
2017-04-06T10:28:12.068Z,99.99
2017-04-06T10:29:25.298Z,99.99
2017-04-06T10:30:37.547Z,99.99
2017-04-06T10:31:50.856Z,99.99
2017-04-06T10:33:03.583Z,99.99
2017-04-06T10:34:16.843Z,99.99
2017-04-06T10:35:30.115Z,99.99
2017-04-06T10:36:42.920Z,99.99
2017-04-06T10:37:55.654Z,99.99
2017-04-06T10:39:08.414Z,99.99
2017-04-06T10:40:21.694Z,99.99
2017-04-06T10:41:34.936Z,99.99
2017-04-06T10:42:48.188Z,99.99
2017-04-06T10:44:01.469Z,99.99
2017-04-06T10:45:14.793Z,99.99
2017-04-06T10:46:28.031Z,99.99
2017-04-06T10:47:40.781Z,99.99
2017-04-06T10:48:54.052Z,99.99
2017-04-06T10:50:06.805Z,99.99
2017-04-06T10:51:20.066Z,99.99
2017-04-06T10:52:32.830Z,99.99
2017-04-06T10:53:46.117Z,99.99
2017-04-06T10:54:59.419Z,99.99
2017-04-06T10:56:12.183Z,99.99
2017-04-06T10:57:25.448Z,99.99
2017-04-06T10:58:38.757Z,99.99
2017-04-06T10:59:52.063Z,99.99
2017-04-06T11:01:05.355Z,99.99
2017-04-06T11:02:18.628Z,99.99
2017-04-06T11:03:30.871Z,99.99
2017-04-06T11:04:44.121Z,99.99
2017-04-06T11:05:57.402Z,99.99
2017-04-06T11:07:10.667Z,99.99
2017-04-06T11:08:23.418Z,99.99
2017-04-06T11:09:36.683Z,99.99
2017-04-06T11:10:49.948Z,99.99
2017-04-06T11:12:02.680Z,99.99
2017-04-06T11:13:15.457Z,99.99
2017-04-06T11:14:28.735Z,99.99
2017-04-06T11:15:42.105Z,99.99
2017-04-06T11:16:54.376Z,99.99
2017-04-06T11:18:07.497Z,99.99
2017-04-06T11:19:20.752Z,99.99
2017-04-06T11:20:34.052Z,99.99
2017-04-06T11:21:46.326Z,99.99
2017-04-06T11:22:59.563Z,99.99
2017-04-06T11:24:12.319Z,99.99
2017-04-06T11:25:25.585Z,99.99
2017-04-06T11:26:37.822Z,99.99
2017-04-06T11:27:51.128Z,99.99
2017-04-06T11:29:03.895Z,99.99
2017-04-06T11:30:17.178Z,99.99
2017-04-06T11:31:29.942Z,99.99
2017-04-06T11:32:43.281Z,99.99
2017-04-06T11:33:57.026Z,99.99
2017-04-06T11:35:10.619Z,99.99
2017-04-06T11:36:23.935Z,99.99
2017-04-06T11:37:36.724Z,99.99
2017-04-06T11:38:49.459Z,99.99
2017-04-06T11:40:02.732Z,99.99
2017-04-06T11:41:15.464Z,99.99
2017-04-06T11:42:28.204Z,99.99
2017-04-06T11:43:41.467Z,99.99
2017-04-06T11:44:54.753Z,99.99
2017-04-06T11:46:08.001Z,99.99
2017-04-06T11:47:21.296Z,99.99
2017-04-06T11:48:34.609Z,99.99
2017-04-06T11:49:47.881Z,99.99
2017-04-06T11:51:01.152Z,99.99
2017-04-06T11:52:13.897Z,99.99
2017-04-06T11:53:27.197Z,99.99
2017-04-06T11:54:39.962Z,99.99
2017-04-06T11:55:53.251Z,99.99
2017-04-06T11:57:06.521Z,99.99
2017-04-06T11:58:19.813Z,99.99
2017-04-06T11:59:32.560Z,99.99
2017-04-06T12:00:45.831Z,99.99
2017-04-06T12:01:59.090Z,99.99
2017-04-06T12:03:12.359Z,99.99
2017-04-06T12:04:25.138Z,99.99
2017-04-06T12:05:37.890Z,99.99
2017-04-06T12:06:51.160Z,99.99
2017-04-06T12:08:04.429Z,99.99
2017-04-06T12:09:17.722Z,99.99
2017-04-06T12:10:30.999Z,99.99
2017-04-06T12:11:44.280Z,99.99
2017-04-06T12:12:57.558Z,99.99
2017-04-06T12:14:10.312Z,99.99
2017-04-06T12:15:23.075Z,99.99
2017-04-06T12:16:36.330Z,99.99
2017-04-06T12:17:49.625Z,99.99
2017-04-06T12:19:02.405Z,99.99
2017-04-06T12:20:15.174Z,99.99
2017-04-06T12:21:28.530Z,99.99
2017-04-06T12:22:41.303Z,99.99
2017-04-06T12:24:25.765Z,99.99
2017-04-06T12:25:38.494Z,99.99
2017-04-06T12:26:51.763Z,99.99
2017-04-06T12:28:05.063Z,99.99
2017-04-06T12:29:18.345Z,99.99
2017-04-06T12:30:31.672Z,99.99
2017-04-06T12:31:44.446Z,99.99
2017-04-06T12:32:57.726Z,99.99
2017-04-06T12:34:11.044Z,99.99
2017-04-06T12:35:23.802Z,99.99
2017-04-06T12:36:37.149Z,99.99
2017-04-06T12:37:49.882Z,99.99
2017-04-06T12:39:02.676Z,99.99
2017-04-06T12:40:15.433Z,99.99
2017-04-06T12:41:28.194Z,99.99
2017-04-06T12:42:41.460Z,99.99
2017-04-06T12:43:54.750Z,99.99
2017-04-06T12:45:08.052Z,99.99
2017-04-06T12:46:21.377Z,99.99
2017-04-06T12:47:34.137Z,99.99
2017-04-06T12:48:47.414Z,99.99
2017-04-06T12:50:00.705Z,99.99
2017-04-06T12:51:13.452Z,99.99
2017-04-06T12:52:26.749Z,99.99
2017-04-06T12:53:40.030Z,99.99
2017-04-06T12:54:53.323Z,99.99
2017-04-06T12:56:05.570Z,99.99
2017-04-06T12:57:18.319Z,99.99
2017-04-06T12:58:31.612Z,99.99
2017-04-06T12:59:44.900Z,99.99
2017-04-06T13:00:58.157Z,99.99
2017-04-06T13:02:11.450Z,99.99
2017-04-06T13:03:24.754Z,99.99
2017-04-06T13:04:38.020Z,99.99
2017-04-06T13:05:50.766Z,99.99
2017-04-06T13:07:04.021Z,99.99
2017-04-06T13:08:17.302Z,99.99
2017-04-06T13:09:30.060Z,99.99
2017-04-06T13:10:42.867Z,99.99
2017-04-06T13:11:55.653Z,99.99
2017-04-06T13:13:08.947Z,99.99
2017-04-06T13:14:21.724Z,99.99
2017-04-06T13:15:34.997Z,99.99
2017-04-06T13:16:48.268Z,99.99
2017-04-06T13:18:01.034Z,99.99
2017-04-06T13:19:14.326Z,99.99
2017-04-06T13:20:27.599Z,99.99
2017-04-06T13:21:40.358Z,99.99
2017-04-06T13:22:53.683Z,99.99
2017-04-06T13:24:06.980Z,99.99
2017-04-06T13:25:20.282Z,99.99
2017-04-06T13:26:33.052Z,99.99
2017-04-06T13:27:45.837Z,99.99
2017-04-06T13:28:59.114Z,99.99
2017-04-06T13:30:12.392Z,99.99
2017-04-06T13:31:25.663Z,99.99
2017-04-06T13:32:38.940Z,99.99
2017-04-06T13:33:52.242Z,99.99
2017-04-06T13:35:05.518Z,99.99
2017-04-06T13:36:18.834Z,99.99
2017-04-06T13:37:32.118Z,99.99
2017-04-06T13:38:44.876Z,99.99
2017-04-06T13:39:57.669Z,99.99
2017-04-06T13:41:10.439Z,99.99
2017-04-06T13:42:23.690Z,99.99
2017-04-06T13:43:36.963Z,99.99
2017-04-06T13:44:50.252Z,99.99
2017-04-06T13:46:03.143Z,99.99
2017-04-06T13:47:15.885Z,99.99
2017-04-06T13:48:29.142Z,99.99
2017-04-06T13:49:42.400Z,99.99
2017-04-06T13:50:55.662Z,99.99
2017-04-06T13:52:08.911Z,99.99
2017-04-06T13:53:22.196Z,99.99
2017-04-06T13:54:35.524Z,99.99
2017-04-06T13:55:48.790Z,99.99
2017-04-06T13:57:02.070Z,99.99
2017-04-06T13:58:15.344Z,99.99
2017-04-06T13:59:28.109Z,99.99
2017-04-06T14:00:40.860Z,99.99
2017-04-06T14:01:54.103Z,99.99
2017-04-06T14:03:07.345Z,99.99
2017-04-06T14:04:20.107Z,99.99
2017-04-06T14:05:33.377Z,99.99
2017-04-06T14:06:46.624Z,99.99
2017-04-06T14:07:59.942Z,99.99
2017-04-06T14:09:13.239Z,99.99
2017-04-06T14:10:26.521Z,99.99
2017-04-06T14:11:39.295Z,99.99
2017-04-06T14:12:52.082Z,99.99
2017-04-06T14:14:05.378Z,99.99
2017-04-06T14:15:18.153Z,99.99
2017-04-06T14:16:31.410Z,99.99
2017-04-06T14:17:44.689Z,99.99
2017-04-06T14:18:57.968Z,99.99
2017-04-06T14:20:11.251Z,99.99
2017-04-06T14:21:24.528Z,99.99
2017-04-06T14:22:37.270Z,99.99
2017-04-06T14:23:50.045Z,99.99
2017-04-06T14:25:03.298Z,99.99
2017-04-06T14:26:16.596Z,99.99
2017-04-06T14:27:29.859Z,99.99
2017-04-06T14:28:42.627Z,99.99
2017-04-06T14:29:55.457Z,99.99
2017-04-06T14:31:08.804Z,99.99
2017-04-06T14:32:22.068Z,99.99
2017-04-06T14:33:35.331Z,99.99
2017-04-06T14:34:48.702Z,99.99
2017-04-06T14:36:01.991Z,99.41
2017-04-06T14:37:14.759Z,95.49
2017-04-06T14:38:28.059Z,95.06
2017-04-06T14:39:40.861Z,94.72
2017-04-06T14:40:54.119Z,97.38
2017-04-06T14:42:06.880Z,96.89
2017-04-06T14:43:20.149Z,96.89
2017-04-06T14:44:32.924Z,96.56
2017-04-06T14:45:45.706Z,94.76
2017-04-06T14:46:58.973Z,93.9
2017-04-06T14:48:12.237Z,93.51
2017-04-06T14:49:25.515Z,95.78
2017-04-06T14:50:38.367Z,93.95
2017-04-06T14:51:51.691Z,95.64
2017-04-06T14:53:04.481Z,95.64
2017-04-06T14:54:17.749Z,96.7
2017-04-06T14:55:31.021Z,96.89
2017-04-06T14:56:43.278Z,95.93
2017-04-06T14:57:56.043Z,96.7
2017-04-06T14:59:08.789Z,96.94
2017-04-06T15:00:22.069Z,96.66
2017-04-06T15:01:35.321Z,96.75
2017-04-06T15:02:48.579Z,97.67
2017-04-06T15:04:01.811Z,96.51
2017-04-06T15:05:15.047Z,96.61
2017-04-06T15:06:28.323Z,95.06
2017-04-06T15:07:41.597Z,95.49
2017-04-06T15:08:54.842Z,95.2
2017-04-06T15:10:08.101Z,94.09
2017-04-06T15:11:21.367Z,91.58
2017-04-06T15:12:34.623Z,89.69
2017-04-06T15:13:47.391Z,88.57
2017-04-06T15:15:00.644Z,88.18
2017-04-06T15:16:13.408Z,89.11
2017-04-06T15:17:26.650Z,90.65
2017-04-06T15:18:39.934Z,90.75
2017-04-06T15:19:53.189Z,89.39
2017-04-06T15:21:06.453Z,89.11
2017-04-06T15:22:19.202Z,88.62
2017-04-06T15:23:31.933Z,89.97
2017-04-06T15:24:45.169Z,90.17
2017-04-06T15:25:58.414Z,90.32
2017-04-06T15:27:11.703Z,91.19
2017-04-06T15:28:24.987Z,89.49
2017-04-06T15:29:38.275Z,89.01
2017-04-06T15:30:51.608Z,88.91
2017-04-06T15:32:04.975Z,91.04
2017-04-06T15:33:18.240Z,90.75
2017-04-06T15:34:31.484Z,91.42
2017-04-06T15:35:44.255Z,90.9
2017-04-06T15:36:57.023Z,91.86
2017-04-06T15:38:09.782Z,92.49
2017-04-06T15:39:22.527Z,92.83
2017-04-06T15:40:35.770Z,91.67
2017-04-06T15:41:48.511Z,91.67
2017-04-06T15:43:01.733Z,92.25
2017-04-06T15:44:14.982Z,91.52